KHBG

Hattiesburg Bobby L Chain Municipal Airport

Hattiesburg, Mississippi, USA
METAR KHBG 231014Z AUTO 12004KT 1/2SM FG VV002 18/18 A3027 RMK AO2 T01830183
Observed Flight Rules
Feb-23 @ 10:14 UTC (19 minutes ago) Instrument Flight Rules
Wind Visibility Clouds Conditions
120° at 4 knots 1/2 miles
  • Vertical visibility at 200' AGL
  • Fog
Temperatures Readings
Current 18°C / 64°F
Dewpoint 18°C / 64°F
Humidity 100%
Altimeter 30.27" Hg
Pressure 1025 hPa
Elevation 44
METAR KHBG 231014Z AUTO 12004KT 1/2SM FG VV002 18/18 A3027 RMK AO2 T01830183
Observed Flight Rules
Feb-23 @ 10:14 UTC
(19 minutes ago)
LIFR
Wind Visibility
120° at 4 knots 1/2 miles
Clouds
  • Vertical visibility at 200' AGL
Conditions
  • Fog
Temperature Dewpoint
18°C / 64°F 18°C / 64°F
Humidity Altimeter Pressure
100% 30.27" Hg 1025 hPa